sensor_id;sensor_type;location;lat;lon;timestamp;P1;durP1;ratioP1;P2;durP2;ratioP2
3066;SDS011;1544;48.834;9.194;2023-02-01T00:02:33;2.30;;;2.10;;
3066;SDS011;1544;48.834;9.194;2023-02-01T00:05:10;2.80;;;2.27;;
3066;SDS011;1544;48.834;9.194;2023-02-01T00:07:46;2.23;;;2.03;;
3066;SDS011;1544;48.834;9.194;2023-02-01T00:10:23;1.97;;;1.87;;
3066;SDS011;1544;48.834;9.194;2023-02-01T00:12:58;2.57;;;2.20;;
3066;SDS011;1544;48.834;9.194;2023-02-01T00:15:33;1.80;;;1.70;;
3066;SDS011;1544;48.834;9.194;2023-02-01T00:18:08;3.83;;;2.40;;
3066;SDS011;1544;48.834;9.194;2023-02-01T00:20:46;2.60;;;2.13;;
3066;SDS011;1544;48.834;9.194;2023-02-01T00:23:21;2.70;;;1.87;;
3066;SDS011;1544;48.834;9.194;2023-02-01T00:25:56;1.90;;;1.60;;
3066;SDS011;1544;48.834;9.194;2023-02-01T00:28:35;2.80;;;1.60;;
3066;SDS011;1544;48.834;9.194;2023-02-01T00:31:10;1.40;;;1.30;;
3066;SDS011;1544;48.834;9.194;2023-02-01T00:33:46;1.50;;;1.40;;
3066;SDS011;1544;48.834;9.194;2023-02-01T00:36:22;1.77;;;1.67;;
3066;SDS011;1544;48.834;9.194;2023-02-01T00:38:57;1.60;;;1.50;;
3066;SDS011;1544;48.834;9.194;2023-02-01T00:41:32;1.40;;;1.30;;
3066;SDS011;1544;48.834;9.194;2023-02-01T00:44:07;2.10;;;1.40;;
3066;SDS011;1544;48.834;9.194;2023-02-01T00:46:42;1.80;;;1.53;;
3066;SDS011;1544;48.834;9.194;2023-02-01T00:49:17;2.00;;;1.40;;
3066;SDS011;1544;48.834;9.194;2023-02-01T00:51:52;1.30;;;1.20;;
3066;SDS011;1544;48.834;9.194;2023-02-01T00:54:27;1.50;;;1.40;;
3066;SDS011;1544;48.834;9.194;2023-02-01T00:57:02;1.43;;;1.27;;
3066;SDS011;1544;48.834;9.194;2023-02-01T00:59:37;1.30;;;1.20;;
3066;SDS011;1544;48.834;9.194;2023-02-01T01:02:12;1.33;;;1.20;;
3066;SDS011;1544;48.834;9.194;2023-02-01T01:04:48;1.20;;;1.10;;
3066;SDS011;1544;48.834;9.194;2023-02-01T01:07:23;1.83;;;1.10;;
3066;SDS011;1544;48.834;9.194;2023-02-01T01:09:58;1.30;;;1.20;;
3066;SDS011;1544;48.834;9.194;2023-02-01T01:12:33;1.20;;;1.10;;
3066;SDS011;1544;48.834;9.194;2023-02-01T01:15:08;1.30;;;1.20;;
3066;SDS011;1544;48.834;9.194;2023-02-01T01:17:43;1.20;;;1.10;;
3066;SDS011;1544;48.834;9.194;2023-02-01T01:20:18;1.27;;;1.17;;
3066;SDS011;1544;48.834;9.194;2023-02-01T01:22:56;1.83;;;1.30;;
3066;SDS011;1544;48.834;9.194;2023-02-01T01:25:31;1.43;;;1.17;;
3066;SDS011;1544;48.834;9.194;2023-02-01T01:28:06;4.00;;;1.10;;
3066;SDS011;1544;48.834;9.194;2023-02-01T01:30:41;1.40;;;1.30;;
3066;SDS011;1544;48.834;9.194;2023-02-01T01:33:16;1.87;;;1.40;;
3066;SDS011;1544;48.834;9.194;2023-02-01T01:35:51;1.23;;;1.13;;
3066;SDS011;1544;48.834;9.194;2023-02-01T01:38:26;0.90;;;0.90;;
3066;SDS011;1544;48.834;9.194;2023-02-01T01:41:01;1.00;;;1.00;;
3066;SDS011;1544;48.834;9.194;2023-02-01T01:43:56;1.20;;;1.10;;
3066;SDS011;1544;48.834;9.194;2023-02-01T01:46:40;1.30;;;1.20;;
3066;SDS011;1544;48.834;9.194;2023-02-01T01:49:17;1.10;;;1.00;;
3066;SDS011;1544;48.834;9.194;2023-02-01T01:51:57;1.50;;;1.03;;
3066;SDS011;1544;48.834;9.194;2023-02-01T01:54:37;1.13;;;1.07;;
3066;SDS011;1544;48.834;9.194;2023-02-01T01:57:26;1.23;;;1.10;;
3066;SDS011;1544;48.834;9.194;2023-02-01T02:00:12;1.00;;;0.90;;
3066;SDS011;1544;48.834;9.194;2023-02-01T02:02:56;2.53;;;0.97;;
3066;SDS011;1544;48.834;9.194;2023-02-01T02:05:37;1.00;;;0.87;;
3066;SDS011;1544;48.834;9.194;2023-02-01T02:08:12;1.00;;;1.00;;
3066;SDS011;1544;48.834;9.194;2023-02-01T02:10:48;0.90;;;0.90;;
3066;SDS011;1544;48.834;9.194;2023-02-01T02:13:38;1.27;;;1.17;;
3066;SDS011;1544;48.834;9.194;2023-02-01T02:31:04;1.63;;;1.53;;
3066;SDS011;1544;48.834;9.194;2023-02-01T02:37:12;0.80;;;0.80;;
3066;SDS011;1544;48.834;9.194;2023-02-01T02:49:20;1.10;;;1.00;;
3066;SDS011;1544;48.834;9.194;2023-02-01T02:52:07;1.40;;;1.30;;
3066;SDS011;1544;48.834;9.194;2023-02-01T02:55:07;1.40;;;1.30;;
3066;SDS011;1544;48.834;9.194;2023-02-01T02:57:43;1.23;;;1.13;;
3066;SDS011;1544;48.834;9.194;2023-02-01T03:00:37;1.33;;;1.23;;
3066;SDS011;1544;48.834;9.194;2023-02-01T03:03:35;1.30;;;1.20;;
3066;SDS011;1544;48.834;9.194;2023-02-01T03:06:32;1.30;;;1.20;;
3066;SDS011;1544;48.834;9.194;2023-02-01T03:09:10;1.23;;;1.13;;
3066;SDS011;1544;48.834;9.194;2023-02-01T03:11:55;1.40;;;1.30;;
3066;SDS011;1544;48.834;9.194;2023-02-01T03:14:54;1.60;;;1.50;;
3066;SDS011;1544;48.834;9.194;2023-02-01T03:17:39;1.50;;;1.40;;
3066;SDS011;1544;48.834;9.194;2023-02-01T03:20:18;1.57;;;1.47;;
3066;SDS011;1544;48.834;9.194;2023-02-01T03:22:54;1.60;;;1.50;;
3066;SDS011;1544;48.834;9.194;2023-02-01T03:25:31;1.63;;;1.53;;
3066;SDS011;1544;48.834;9.194;2023-02-01T03:28:09;1.40;;;1.30;;
3066;SDS011;1544;48.834;9.194;2023-02-01T03:30:45;1.60;;;1.30;;
3066;SDS011;1544;48.834;9.194;2023-02-01T03:33:21;1.63;;;1.53;;
3066;SDS011;1544;48.834;9.194;2023-02-01T03:39:04;1.17;;;1.07;;
3066;SDS011;1544;48.834;9.194;2023-02-01T03:41:56;1.30;;;1.20;;
3066;SDS011;1544;48.834;9.194;2023-02-01T03:44:36;1.43;;;1.10;;
3066;SDS011;1544;48.834;9.194;2023-02-01T03:47:19;1.07;;;1.00;;
3066;SDS011;1544;48.834;9.194;2023-02-01T03:50:07;1.10;;;1.07;;
3066;SDS011;1544;48.834;9.194;2023-02-01T03:52:53;1.40;;;1.30;;
3066;SDS011;1544;48.834;9.194;2023-02-01T03:55:33;1.70;;;1.60;;
3066;SDS011;1544;48.834;9.194;2023-02-01T03:58:15;1.70;;;1.60;;
3066;SDS011;1544;48.834;9.194;2023-02-01T04:00:55;1.40;;;1.10;;
3066;SDS011;1544;48.834;9.194;2023-02-01T04:03:33;1.20;;;1.10;;
3066;SDS011;1544;48.834;9.194;2023-02-01T04:06:08;1.23;;;1.13;;
3066;SDS011;1544;48.834;9.194;2023-02-01T04:08:43;1.00;;;1.00;;
3066;SDS011;1544;48.834;9.194;2023-02-01T04:11:18;1.27;;;1.10;;
3066;SDS011;1544;48.834;9.194;2023-02-01T04:13:53;1.37;;;1.20;;
3066;SDS011;1544;48.834;9.194;2023-02-01T04:16:28;1.20;;;1.10;;
3066;SDS011;1544;48.834;9.194;2023-02-01T04:19:02;1.20;;;1.10;;
3066;SDS011;1544;48.834;9.194;2023-02-01T04:21:37;0.97;;;0.97;;
3066;SDS011;1544;48.834;9.194;2023-02-01T04:24:12;1.40;;;1.10;;
3066;SDS011;1544;48.834;9.194;2023-02-01T04:26:47;1.23;;;1.13;;
3066;SDS011;1544;48.834;9.194;2023-02-01T04:29:22;1.20;;;1.10;;
3066;SDS011;1544;48.834;9.194;2023-02-01T04:31:57;1.40;;;1.30;;
3066;SDS011;1544;48.834;9.194;2023-02-01T04:34:32;0.87;;;0.87;;
3066;SDS011;1544;48.834;9.194;2023-02-01T04:37:07;1.43;;;1.10;;
3066;SDS011;1544;48.834;9.194;2023-02-01T04:39:42;1.83;;;1.10;;
3066;SDS011;1544;48.834;9.194;2023-02-01T04:42:17;1.77;;;1.20;;
3066;SDS011;1544;48.834;9.194;2023-02-01T04:44:52;1.23;;;1.00;;
3066;SDS011;1544;48.834;9.194;2023-02-01T04:47:27;1.20;;;1.10;;
3066;SDS011;1544;48.834;9.194;2023-02-01T04:50:02;1.20;;;1.10;;
3066;SDS011;1544;48.834;9.194;2023-02-01T04:52:38;0.83;;;0.83;;
3066;SDS011;1544;48.834;9.194;2023-02-01T04:55:13;1.73;;;1.13;;
3066;SDS011;1544;48.834;9.194;2023-02-01T04:57:48;1.37;;;1.20;;
3066;SDS011;1544;48.834;9.194;2023-02-01T05:00:22;1.00;;;1.00;;
3066;SDS011;1544;48.834;9.194;2023-02-01T05:02:58;1.10;;;1.00;;
3066;SDS011;1544;48.834;9.194;2023-02-01T05:05:33;1.00;;;0.97;;
3066;SDS011;1544;48.834;9.194;2023-02-01T05:08:08;1.10;;;1.00;;
3066;SDS011;1544;48.834;9.194;2023-02-01T05:10:44;1.13;;;1.03;;
3066;SDS011;1544;48.834;9.194;2023-02-01T05:13:19;1.67;;;1.17;;
3066;SDS011;1544;48.834;9.194;2023-02-01T05:16:12;1.10;;;1.00;;
3066;SDS011;1544;48.834;9.194;2023-02-01T05:18:48;1.20;;;1.10;;
3066;SDS011;1544;48.834;9.194;2023-02-01T05:21:22;1.07;;;0.90;;
3066;SDS011;1544;48.834;9.194;2023-02-01T05:23:57;1.70;;;1.07;;
3066;SDS011;1544;48.834;9.194;2023-02-01T05:26:44;1.53;;;1.10;;
3066;SDS011;1544;48.834;9.194;2023-02-01T05:29:20;0.90;;;0.90;;
3066;SDS011;1544;48.834;9.194;2023-02-01T05:31:55;1.43;;;1.33;;
3066;SDS011;1544;48.834;9.194;2023-02-01T05:34:38;1.23;;;0.90;;
3066;SDS011;1544;48.834;9.194;2023-02-01T05:37:13;0.93;;;0.90;;
3066;SDS011;1544;48.834;9.194;2023-02-01T05:39:48;1.27;;;1.00;;
3066;SDS011;1544;48.834;9.194;2023-02-01T05:42:23;1.20;;;1.10;;
3066;SDS011;1544;48.834;9.194;2023-02-01T05:44:58;1.13;;;0.93;;
3066;SDS011;1544;48.834;9.194;2023-02-01T05:47:33;1.33;;;1.23;;
3066;SDS011;1544;48.834;9.194;2023-02-01T05:50:08;1.13;;;1.03;;
3066;SDS011;1544;48.834;9.194;2023-02-01T05:52:43;1.03;;;1.00;;
3066;SDS011;1544;48.834;9.194;2023-02-01T05:55:18;1.20;;;1.10;;
3066;SDS011;1544;48.834;9.194;2023-02-01T05:57:53;1.30;;;1.20;;
3066;SDS011;1544;48.834;9.194;2023-02-01T06:00:28;1.50;;;1.40;;
3066;SDS011;1544;48.834;9.194;2023-02-01T06:03:03;1.97;;;1.33;;
3066;SDS011;1544;48.834;9.194;2023-02-01T06:05:37;1.37;;;1.27;;
3066;SDS011;1544;48.834;9.194;2023-02-01T06:08:12;1.27;;;1.10;;
3066;SDS011;1544;48.834;9.194;2023-02-01T06:10:48;2.00;;;1.30;;
3066;SDS011;1544;48.834;9.194;2023-02-01T06:13:23;1.23;;;1.00;;
3066;SDS011;1544;48.834;9.194;2023-02-01T06:15:58;1.20;;;1.10;;
3066;SDS011;1544;48.834;9.194;2023-02-01T06:18:34;1.97;;;1.20;;
3066;SDS011;1544;48.834;9.194;2023-02-01T06:21:09;1.00;;;1.00;;
3066;SDS011;1544;48.834;9.194;2023-02-01T06:23:44;1.60;;;1.00;;
3066;SDS011;1544;48.834;9.194;2023-02-01T06:26:19;2.03;;;1.30;;
3066;SDS011;1544;48.834;9.194;2023-02-01T06:28:55;1.20;;;1.10;;
3066;SDS011;1544;48.834;9.194;2023-02-01T06:31:30;1.30;;;1.20;;
3066;SDS011;1544;48.834;9.194;2023-02-01T06:34:06;1.80;;;0.97;;
3066;SDS011;1544;48.834;9.194;2023-02-01T06:36:41;5.20;;;1.10;;
3066;SDS011;1544;48.834;9.194;2023-02-01T06:39:16;1.10;;;0.93;;
3066;SDS011;1544;48.834;9.194;2023-02-01T06:41:51;0.90;;;0.90;;
3066;SDS011;1544;48.834;9.194;2023-02-01T06:44:26;1.10;;;1.00;;
3066;SDS011;1544;48.834;9.194;2023-02-01T06:47:02;1.60;;;1.30;;
3066;SDS011;1544;48.834;9.194;2023-02-01T06:49:41;1.40;;;1.13;;
3066;SDS011;1544;48.834;9.194;2023-02-01T06:52:17;3.27;;;1.40;;
3066;SDS011;1544;48.834;9.194;2023-02-01T06:54:52;1.70;;;1.50;;
3066;SDS011;1544;48.834;9.194;2023-02-01T06:57:26;2.30;;;1.70;;
3066;SDS011;1544;48.834;9.194;2023-02-01T07:00:04;2.07;;;1.70;;
3066;SDS011;1544;48.834;9.194;2023-02-01T07:02:40;1.87;;;1.60;;
3066;SDS011;1544;48.834;9.194;2023-02-01T07:05:16;5.30;;;1.90;;
3066;SDS011;1544;48.834;9.194;2023-02-01T07:07:51;1.90;;;1.30;;
3066;SDS011;1544;48.834;9.194;2023-02-01T07:10:26;2.40;;;1.40;;
3066;SDS011;1544;48.834;9.194;2023-02-01T07:13:01;3.10;;;1.53;;
3066;SDS011;1544;48.834;9.194;2023-02-01T07:15:36;4.10;;;1.93;;
3066;SDS011;1544;48.834;9.194;2023-02-01T07:18:11;2.07;;;1.60;;
3066;SDS011;1544;48.834;9.194;2023-02-01T07:20:51;2.50;;;1.80;;
3066;SDS011;1544;48.834;9.194;2023-02-01T07:23:26;3.30;;;1.80;;
3066;SDS011;1544;48.834;9.194;2023-02-01T07:26:03;3.60;;;1.90;;
3066;SDS011;1544;48.834;9.194;2023-02-01T07:28:41;4.77;;;1.63;;
3066;SDS011;1544;48.834;9.194;2023-02-01T07:31:17;6.20;;;2.53;;
3066;SDS011;1544;48.834;9.194;2023-02-01T07:33:55;5.03;;;2.03;;
3066;SDS011;1544;48.834;9.194;2023-02-01T07:36:31;2.53;;;1.70;;
3066;SDS011;1544;48.834;9.194;2023-02-01T07:39:08;4.97;;;2.13;;
3066;SDS011;1544;48.834;9.194;2023-02-01T07:41:43;2.50;;;1.50;;
3066;SDS011;1544;48.834;9.194;2023-02-01T07:44:19;2.20;;;2.00;;
3066;SDS011;1544;48.834;9.194;2023-02-01T07:46:57;3.77;;;2.23;;
3066;SDS011;1544;48.834;9.194;2023-02-01T07:49:32;4.37;;;2.37;;
3066;SDS011;1544;48.834;9.194;2023-02-01T07:52:07;3.47;;;2.07;;
3066;SDS011;1544;48.834;9.194;2023-02-01T07:54:42;5.30;;;2.10;;
3066;SDS011;1544;48.834;9.194;2023-02-01T07:57:17;3.17;;;2.70;;
3066;SDS011;1544;48.834;9.194;2023-02-01T07:59:53;2.10;;;1.97;;
3066;SDS011;1544;48.834;9.194;2023-02-01T08:02:48;4.03;;;1.80;;
3066;SDS011;1544;48.834;9.194;2023-02-01T08:05:23;4.00;;;2.33;;
3066;SDS011;1544;48.834;9.194;2023-02-01T08:07:58;7.63;;;2.57;;
3066;SDS011;1544;48.834;9.194;2023-02-01T08:10:33;4.53;;;2.10;;
3066;SDS011;1544;48.834;9.194;2023-02-01T08:13:09;6.80;;;2.23;;
3066;SDS011;1544;48.834;9.194;2023-02-01T08:15:44;3.60;;;2.27;;
3066;SDS011;1544;48.834;9.194;2023-02-01T08:18:19;5.10;;;1.90;;
3066;SDS011;1544;48.834;9.194;2023-02-01T08:20:55;8.63;;;2.43;;
3066;SDS011;1544;48.834;9.194;2023-02-01T08:23:31;2.90;;;1.63;;
3066;SDS011;1544;48.834;9.194;2023-02-01T08:28:55;4.63;;;2.00;;
3066;SDS011;1544;48.834;9.194;2023-02-01T08:31:34;2.83;;;1.60;;
3066;SDS011;1544;48.834;9.194;2023-02-01T08:34:09;5.40;;;1.90;;
3066;SDS011;1544;48.834;9.194;2023-02-01T08:36:46;4.47;;;2.17;;
3066;SDS011;1544;48.834;9.194;2023-02-01T08:39:21;6.60;;;2.20;;
3066;SDS011;1544;48.834;9.194;2023-02-01T08:41:56;6.00;;;2.27;;
3066;SDS011;1544;48.834;9.194;2023-02-01T08:44:49;3.33;;;1.90;;
3066;SDS011;1544;48.834;9.194;2023-02-01T08:47:24;1.60;;;1.40;;
3066;SDS011;1544;48.834;9.194;2023-02-01T08:49:59;7.13;;;1.63;;
3066;SDS011;1544;48.834;9.194;2023-02-01T08:52:34;8.77;;;2.07;;
3066;SDS011;1544;48.834;9.194;2023-02-01T08:55:12;5.63;;;2.13;;
3066;SDS011;1544;48.834;9.194;2023-02-01T08:57:47;3.93;;;2.03;;
3066;SDS011;1544;48.834;9.194;2023-02-01T09:00:22;4.37;;;1.87;;
3066;SDS011;1544;48.834;9.194;2023-02-01T09:02:58;6.93;;;1.80;;
3066;SDS011;1544;48.834;9.194;2023-02-01T09:05:33;3.40;;;1.40;;
3066;SDS011;1544;48.834;9.194;2023-02-01T09:08:22;4.03;;;2.70;;
3066;SDS011;1544;48.834;9.194;2023-02-01T09:11:01;3.60;;;2.23;;
3066;SDS011;1544;48.834;9.194;2023-02-01T09:13:41;5.77;;;1.70;;
3066;SDS011;1544;48.834;9.194;2023-02-01T09:16:16;4.10;;;1.70;;
3066;SDS011;1544;48.834;9.194;2023-02-01T09:18:51;4.63;;;1.70;;
3066;SDS011;1544;48.834;9.194;2023-02-01T09:21:46;2.80;;;1.53;;
3066;SDS011;1544;48.834;9.194;2023-02-01T09:24:21;3.90;;;1.90;;
3066;SDS011;1544;48.834;9.194;2023-02-01T09:26:55;7.37;;;2.13;;
3066;SDS011;1544;48.834;9.194;2023-02-01T09:29:30;4.10;;;2.10;;
3066;SDS011;1544;48.834;9.194;2023-02-01T09:32:05;2.20;;;2.00;;
3066;SDS011;1544;48.834;9.194;2023-02-01T09:34:41;2.63;;;1.53;;
3066;SDS011;1544;48.834;9.194;2023-02-01T09:37:16;5.60;;;1.57;;
3066;SDS011;1544;48.834;9.194;2023-02-01T09:39:51;6.00;;;1.70;;
3066;SDS011;1544;48.834;9.194;2023-02-01T09:46:15;7.80;;;1.97;;
3066;SDS011;1544;48.834;9.194;2023-02-01T09:48:57;6.10;;;2.07;;
3066;SDS011;1544;48.834;9.194;2023-02-01T09:51:37;5.23;;;1.50;;
3066;SDS011;1544;48.834;9.194;2023-02-01T09:54:19;6.83;;;2.00;;
3066;SDS011;1544;48.834;9.194;2023-02-01T09:57:05;4.93;;;2.37;;
3066;SDS011;1544;48.834;9.194;2023-02-01T09:59:47;9.60;;;1.80;;
3066;SDS011;1544;48.834;9.194;2023-02-01T10:02:31;6.10;;;2.30;;
3066;SDS011;1544;48.834;9.194;2023-02-01T10:05:14;6.60;;;1.60;;
3066;SDS011;1544;48.834;9.194;2023-02-01T10:10:48;11.30;;;2.03;;
3066;SDS011;1544;48.834;9.194;2023-02-01T10:22:15;6.40;;;1.43;;
3066;SDS011;1544;48.834;9.194;2023-02-01T10:25:42;5.70;;;1.80;;
3066;SDS011;1544;48.834;9.194;2023-02-01T10:28:49;6.13;;;1.60;;
3066;SDS011;1544;48.834;9.194;2023-02-01T10:31:31;6.10;;;1.30;;
3066;SDS011;1544;48.834;9.194;2023-02-01T10:34:15;7.93;;;1.63;;
3066;SDS011;1544;48.834;9.194;2023-02-01T10:36:57;8.43;;;2.03;;
3066;SDS011;1544;48.834;9.194;2023-02-01T10:39:41;12.00;;;1.70;;
3066;SDS011;1544;48.834;9.194;2023-02-01T10:42:17;4.20;;;1.93;;
3066;SDS011;1544;48.834;9.194;2023-02-01T10:44:58;5.30;;;1.30;;
3066;SDS011;1544;48.834;9.194;2023-02-01T10:47:36;5.00;;;1.53;;
3066;SDS011;1544;48.834;9.194;2023-02-01T10:53:06;3.93;;;1.43;;
3066;SDS011;1544;48.834;9.194;2023-02-01T10:56:28;7.83;;;1.67;;
3066;SDS011;1544;48.834;9.194;2023-02-01T10:59:04;2.30;;;1.30;;
3066;SDS011;1544;48.834;9.194;2023-02-01T11:01:48;7.53;;;1.93;;
3066;SDS011;1544;48.834;9.194;2023-02-01T11:04:24;6.63;;;1.50;;
3066;SDS011;1544;48.834;9.194;2023-02-01T11:07:34;6.90;;;1.63;;
3066;SDS011;1544;48.834;9.194;2023-02-01T11:10:03;12.40;;;1.90;;
3066;SDS011;1544;48.834;9.194;2023-02-01T11:12:39;3.40;;;1.40;;
3066;SDS011;1544;48.834;9.194;2023-02-01T11:15:18;6.73;;;1.43;;
3066;SDS011;1544;48.834;9.194;2023-02-01T11:17:56;7.67;;;1.70;;
3066;SDS011;1544;48.834;9.194;2023-02-01T11:20:58;4.10;;;1.33;;
3066;SDS011;1544;48.834;9.194;2023-02-01T11:23:36;7.37;;;1.63;;
3066;SDS011;1544;48.834;9.194;2023-02-01T11:26:21;8.80;;;1.70;;
3066;SDS011;1544;48.834;9.194;2023-02-01T11:29:05;6.13;;;1.50;;
3066;SDS011;1544;48.834;9.194;2023-02-01T11:31:47;6.37;;;1.80;;
3066;SDS011;1544;48.834;9.194;2023-02-01T11:34:25;6.33;;;1.57;;
3066;SDS011;1544;48.834;9.194;2023-02-01T11:37:33;3.93;;;1.40;;
3066;SDS011;1544;48.834;9.194;2023-02-01T11:42:54;8.83;;;1.70;;
3066;SDS011;1544;48.834;9.194;2023-02-01T11:45:35;6.97;;;1.70;;
3066;SDS011;1544;48.834;9.194;2023-02-01T11:48:15;6.70;;;1.40;;
3066;SDS011;1544;48.834;9.194;2023-02-01T11:57:24;5.63;;;1.30;;
3066;SDS011;1544;48.834;9.194;2023-02-01T12:00:42;2.60;;;1.33;;
3066;SDS011;1544;48.834;9.194;2023-02-01T12:30:58;4.77;;;1.20;;
3066;SDS011;1544;48.834;9.194;2023-02-01T12:33:54;4.43;;;1.70;;
3066;SDS011;1544;48.834;9.194;2023-02-01T12:36:44;3.73;;;1.20;;
3066;SDS011;1544;48.834;9.194;2023-02-01T12:39:45;3.03;;;1.20;;
3066;SDS011;1544;48.834;9.194;2023-02-01T12:43:09;4.63;;;1.33;;
3066;SDS011;1544;48.834;9.194;2023-02-01T12:45:56;6.33;;;1.33;;
3066;SDS011;1544;48.834;9.194;2023-02-01T12:48:42;4.37;;;1.30;;
3066;SDS011;1544;48.834;9.194;2023-02-01T12:51:31;7.03;;;2.40;;
3066;SDS011;1544;48.834;9.194;2023-02-01T12:57:14;8.67;;;1.43;;
3066;SDS011;1544;48.834;9.194;2023-02-01T13:00:27;5.90;;;1.73;;
3066;SDS011;1544;48.834;9.194;2023-02-01T13:09:03;7.33;;;1.50;;
3066;SDS011;1544;48.834;9.194;2023-02-01T13:12:12;4.80;;;1.67;;
3066;SDS011;1544;48.834;9.194;2023-02-01T13:14:58;8.37;;;1.73;;
3066;SDS011;1544;48.834;9.194;2023-02-01T13:17:40;5.43;;;1.40;;
3066;SDS011;1544;48.834;9.194;2023-02-01T13:20:24;6.70;;;1.57;;
3066;SDS011;1544;48.834;9.194;2023-02-01T13:23:18;4.07;;;2.00;;
3066;SDS011;1544;48.834;9.194;2023-02-01T13:26:01;4.73;;;1.70;;
3066;SDS011;1544;48.834;9.194;2023-02-01T13:28:42;5.47;;;1.80;;
3066;SDS011;1544;48.834;9.194;2023-02-01T13:31:56;7.63;;;1.60;;
3066;SDS011;1544;48.834;9.194;2023-02-01T13:44:24;4.47;;;1.50;;
3066;SDS011;1544;48.834;9.194;2023-02-01T13:47:12;4.20;;;1.50;;
3066;SDS011;1544;48.834;9.194;2023-02-01T13:50:39;5.27;;;1.10;;
3066;SDS011;1544;48.834;9.194;2023-02-01T13:55:46;4.83;;;1.70;;
3066;SDS011;1544;48.834;9.194;2023-02-01T13:58:53;4.70;;;1.53;;
3066;SDS011;1544;48.834;9.194;2023-02-01T14:01:32;2.73;;;1.47;;
3066;SDS011;1544;48.834;9.194;2023-02-01T14:04:44;5.20;;;1.40;;
3066;SDS011;1544;48.834;9.194;2023-02-01T14:07:22;5.23;;;1.67;;
3066;SDS011;1544;48.834;9.194;2023-02-01T14:09:58;6.20;;;1.30;;
3066;SDS011;1544;48.834;9.194;2023-02-01T14:13:12;4.40;;;1.50;;
3066;SDS011;1544;48.834;9.194;2023-02-01T14:23:58;2.20;;;1.20;;
3066;SDS011;1544;48.834;9.194;2023-02-01T14:26:55;6.37;;;1.33;;
3066;SDS011;1544;48.834;9.194;2023-02-01T14:29:34;4.27;;;1.47;;
3066;SDS011;1544;48.834;9.194;2023-02-01T14:32:18;9.70;;;1.93;;
3066;SDS011;1544;48.834;9.194;2023-02-01T14:34:56;5.63;;;1.70;;
3066;SDS011;1544;48.834;9.194;2023-02-01T14:37:35;8.47;;;1.90;;
3066;SDS011;1544;48.834;9.194;2023-02-01T14:42:48;8.90;;;1.80;;
3066;SDS011;1544;48.834;9.194;2023-02-01T14:48:40;4.00;;;1.57;;
3066;SDS011;1544;48.834;9.194;2023-02-01T14:50:58;3.73;;;1.77;;
3066;SDS011;1544;48.834;9.194;2023-02-01T14:53:35;13.23;;;1.97;;
3066;SDS011;1544;48.834;9.194;2023-02-01T14:56:14;4.40;;;1.60;;
3066;SDS011;1544;48.834;9.194;2023-02-01T14:59:00;3.23;;;1.30;;
3066;SDS011;1544;48.834;9.194;2023-02-01T15:01:50;5.10;;;1.47;;
3066;SDS011;1544;48.834;9.194;2023-02-01T15:04:28;7.20;;;1.80;;
3066;SDS011;1544;48.834;9.194;2023-02-01T15:07:16;7.20;;;1.50;;
3066;SDS011;1544;48.834;9.194;2023-02-01T15:09:52;8.57;;;1.50;;
3066;SDS011;1544;48.834;9.194;2023-02-01T15:12:31;2.90;;;1.40;;
3066;SDS011;1544;48.834;9.194;2023-02-01T15:17:56;6.53;;;1.70;;
3066;SDS011;1544;48.834;9.194;2023-02-01T15:20:34;2.80;;;1.50;;
3066;SDS011;1544;48.834;9.194;2023-02-01T15:23:16;4.13;;;1.20;;
3066;SDS011;1544;48.834;9.194;2023-02-01T15:25:51;5.87;;;1.20;;
3066;SDS011;1544;48.834;9.194;2023-02-01T15:28:27;4.57;;;1.50;;
3066;SDS011;1544;48.834;9.194;2023-02-01T15:31:03;6.70;;;1.50;;
3066;SDS011;1544;48.834;9.194;2023-02-01T15:33:40;6.27;;;1.53;;
3066;SDS011;1544;48.834;9.194;2023-02-01T15:36:33;4.33;;;1.40;;
3066;SDS011;1544;48.834;9.194;2023-02-01T15:39:13;3.93;;;1.23;;
3066;SDS011;1544;48.834;9.194;2023-02-01T15:42:10;2.93;;;1.17;;
3066;SDS011;1544;48.834;9.194;2023-02-01T15:44:53;3.37;;;1.20;;
3066;SDS011;1544;48.834;9.194;2023-02-01T15:47:28;6.40;;;1.40;;
3066;SDS011;1544;48.834;9.194;2023-02-01T15:50:05;5.37;;;1.63;;
3066;SDS011;1544;48.834;9.194;2023-02-01T15:52:47;3.57;;;1.40;;
3066;SDS011;1544;48.834;9.194;2023-02-01T15:55:36;5.73;;;1.60;;
3066;SDS011;1544;48.834;9.194;2023-02-01T15:58:17;7.90;;;2.17;;
3066;SDS011;1544;48.834;9.194;2023-02-01T16:11:47;2.30;;;1.10;;
3066;SDS011;1544;48.834;9.194;2023-02-01T16:14:33;5.00;;;1.40;;
3066;SDS011;1544;48.834;9.194;2023-02-01T16:17:08;2.93;;;1.23;;
3066;SDS011;1544;48.834;9.194;2023-02-01T16:19:44;3.30;;;1.37;;
3066;SDS011;1544;48.834;9.194;2023-02-01T16:22:19;4.50;;;1.50;;
3066;SDS011;1544;48.834;9.194;2023-02-01T16:24:53;4.00;;;1.30;;
3066;SDS011;1544;48.834;9.194;2023-02-01T16:27:28;1.90;;;1.23;;
3066;SDS011;1544;48.834;9.194;2023-02-01T16:30:04;5.50;;;1.20;;
3066;SDS011;1544;48.834;9.194;2023-02-01T16:32:39;2.13;;;1.03;;
3066;SDS011;1544;48.834;9.194;2023-02-01T16:35:21;5.27;;;1.33;;
3066;SDS011;1544;48.834;9.194;2023-02-01T16:38:04;3.97;;;1.57;;
3066;SDS011;1544;48.834;9.194;2023-02-01T16:40:47;4.90;;;1.30;;
3066;SDS011;1544;48.834;9.194;2023-02-01T16:43:24;4.20;;;1.20;;
3066;SDS011;1544;48.834;9.194;2023-02-01T16:46:02;3.23;;;1.20;;
3066;SDS011;1544;48.834;9.194;2023-02-01T16:48:38;5.87;;;1.67;;
3066;SDS011;1544;48.834;9.194;2023-02-01T16:51:16;3.33;;;1.40;;
3066;SDS011;1544;48.834;9.194;2023-02-01T16:53:51;5.33;;;1.70;;
3066;SDS011;1544;48.834;9.194;2023-02-01T16:56:29;13.73;;;2.00;;
3066;SDS011;1544;48.834;9.194;2023-02-01T16:59:09;3.80;;;1.30;;
3066;SDS011;1544;48.834;9.194;2023-02-01T17:01:45;2.23;;;1.10;;
3066;SDS011;1544;48.834;9.194;2023-02-01T17:04:19;4.30;;;1.50;;
3066;SDS011;1544;48.834;9.194;2023-02-01T17:06:55;2.20;;;1.13;;
3066;SDS011;1544;48.834;9.194;2023-02-01T17:09:30;4.17;;;1.20;;
3066;SDS011;1544;48.834;9.194;2023-02-01T17:12:05;12.43;;;2.47;;
3066;SDS011;1544;48.834;9.194;2023-02-01T17:14:41;4.93;;;1.50;;
3066;SDS011;1544;48.834;9.194;2023-02-01T17:17:16;2.20;;;1.17;;
3066;SDS011;1544;48.834;9.194;2023-02-01T17:20:06;7.90;;;1.87;;
3066;SDS011;1544;48.834;9.194;2023-02-01T17:22:44;3.53;;;1.50;;
3066;SDS011;1544;48.834;9.194;2023-02-01T17:25:19;5.17;;;1.67;;
3066;SDS011;1544;48.834;9.194;2023-02-01T17:27:56;4.23;;;1.30;;
3066;SDS011;1544;48.834;9.194;2023-02-01T17:30:31;3.00;;;1.50;;
3066;SDS011;1544;48.834;9.194;2023-02-01T17:33:12;4.37;;;1.50;;
3066;SDS011;1544;48.834;9.194;2023-02-01T17:35:58;7.60;;;1.43;;
3066;SDS011;1544;48.834;9.194;2023-02-01T17:38:33;6.53;;;1.70;;
3066;SDS011;1544;48.834;9.194;2023-02-01T17:41:12;3.70;;;1.20;;
3066;SDS011;1544;48.834;9.194;2023-02-01T17:43:48;3.10;;;1.73;;
3066;SDS011;1544;48.834;9.194;2023-02-01T17:46:25;4.00;;;1.30;;
3066;SDS011;1544;48.834;9.194;2023-02-01T17:49:01;3.33;;;1.30;;
3066;SDS011;1544;48.834;9.194;2023-02-01T17:51:37;9.67;;;1.63;;
3066;SDS011;1544;48.834;9.194;2023-02-01T17:54:14;4.07;;;1.40;;
3066;SDS011;1544;48.834;9.194;2023-02-01T17:56:51;9.60;;;1.33;;
3066;SDS011;1544;48.834;9.194;2023-02-01T17:59:26;4.20;;;1.30;;
3066;SDS011;1544;48.834;9.194;2023-02-01T18:02:01;7.23;;;1.60;;
3066;SDS011;1544;48.834;9.194;2023-02-01T18:04:36;3.87;;;1.63;;
3066;SDS011;1544;48.834;9.194;2023-02-01T18:07:11;4.23;;;1.73;;
3066;SDS011;1544;48.834;9.194;2023-02-01T18:09:46;6.57;;;1.70;;
3066;SDS011;1544;48.834;9.194;2023-02-01T18:12:21;6.40;;;1.40;;
3066;SDS011;1544;48.834;9.194;2023-02-01T18:14:58;5.30;;;1.40;;
3066;SDS011;1544;48.834;9.194;2023-02-01T18:17:33;4.50;;;1.40;;
3066;SDS011;1544;48.834;9.194;2023-02-01T18:20:12;3.80;;;1.50;;
3066;SDS011;1544;48.834;9.194;2023-02-01T18:22:52;3.70;;;1.60;;
3066;SDS011;1544;48.834;9.194;2023-02-01T18:25:28;4.47;;;1.63;;
3066;SDS011;1544;48.834;9.194;2023-02-01T18:28:10;7.67;;;2.03;;
3066;SDS011;1544;48.834;9.194;2023-02-01T18:30:46;6.60;;;2.10;;
3066;SDS011;1544;48.834;9.194;2023-02-01T18:33:24;5.13;;;1.63;;
3066;SDS011;1544;48.834;9.194;2023-02-01T18:35:59;3.90;;;1.40;;
3066;SDS011;1544;48.834;9.194;2023-02-01T18:38:34;5.37;;;1.40;;
3066;SDS011;1544;48.834;9.194;2023-02-01T18:41:16;5.87;;;1.60;;
3066;SDS011;1544;48.834;9.194;2023-02-01T18:43:56;4.10;;;1.20;;
3066;SDS011;1544;48.834;9.194;2023-02-01T18:46:31;3.77;;;1.30;;
3066;SDS011;1544;48.834;9.194;2023-02-01T18:49:06;5.73;;;1.40;;
3066;SDS011;1544;48.834;9.194;2023-02-01T18:51:41;4.93;;;2.23;;